createdAt,value
2019-03-21T00:01:37.935Z,8.40
2019-03-21T00:04:11.421Z,8.30
2019-03-21T00:06:42.334Z,8.30
2019-03-21T00:09:15.191Z,8.20
2019-03-21T00:11:59.883Z,8.20
2019-03-21T00:15:02.427Z,8.20
2019-03-21T00:17:39.263Z,8.10
2019-03-21T00:20:13.084Z,8.10
2019-03-21T00:22:44.055Z,8.10
2019-03-21T00:25:17.717Z,8.00
2019-03-21T00:27:48.515Z,8.00
2019-03-21T00:30:21.519Z,8.10
2019-03-21T00:32:52.887Z,8.00
2019-03-21T00:35:23.867Z,8.00
2019-03-21T00:37:54.836Z,8.00
2019-03-21T00:40:28.095Z,7.90
2019-03-21T00:43:00.435Z,7.80
2019-03-21T00:45:31.349Z,7.80
2019-03-21T00:48:03.065Z,7.70
2019-03-21T00:50:34.967Z,7.70
2019-03-21T00:53:06.175Z,7.50
2019-03-21T00:55:37.667Z,7.50
2019-03-21T00:58:08.651Z,7.30
2019-03-21T01:00:42.879Z,7.30
2019-03-21T01:03:14.348Z,7.20
2019-03-21T01:05:45.620Z,7.00
2019-03-21T01:08:16.955Z,6.90
2019-03-21T01:10:48.400Z,6.80
2019-03-21T01:13:19.275Z,6.70
2019-03-21T01:15:50.079Z,6.70
2019-03-21T01:18:20.963Z,6.60
2019-03-21T01:20:51.776Z,6.90
2019-03-21T01:23:23.658Z,6.50
2019-03-21T01:25:55.385Z,6.50
2019-03-21T01:28:26.263Z,6.50
2019-03-21T01:30:57.179Z,6.60
2019-03-21T01:33:28.047Z,6.60
2019-03-21T01:35:58.871Z,6.60
2019-03-21T01:38:29.679Z,6.50
2019-03-21T01:41:01.007Z,6.40
2019-03-21T01:43:31.835Z,6.40
2019-03-21T01:46:03.382Z,6.40
2019-03-21T01:48:34.284Z,6.40
2019-03-21T01:51:05.135Z,6.40
2019-03-21T01:53:36.016Z,6.30
2019-03-21T01:56:07.880Z,6.30
2019-03-21T01:58:38.691Z,6.30
2019-03-21T02:01:09.479Z,6.20
2019-03-21T02:03:40.291Z,6.10
2019-03-21T02:06:11.091Z,6.10
2019-03-21T02:08:41.951Z,6.00
2019-03-21T02:11:12.763Z,6.00
2019-03-21T02:13:43.679Z,6.00
2019-03-21T02:16:14.571Z,6.00
2019-03-21T02:18:45.383Z,5.90
2019-03-21T02:21:16.207Z,5.90
2019-03-21T02:23:47.007Z,5.90
2019-03-21T02:26:17.829Z,5.70
2019-03-21T02:28:48.657Z,5.70
2019-03-21T02:31:19.455Z,5.70
2019-03-21T02:33:50.592Z,5.70
2019-03-21T02:36:21.499Z,5.60
2019-03-21T02:38:52.366Z,5.60
2019-03-21T02:41:25.559Z,5.60
2019-03-21T02:43:55.780Z,5.60
2019-03-21T02:46:27.053Z,5.70
2019-03-21T02:48:57.859Z,5.60
2019-03-21T02:51:28.719Z,5.60
2019-03-21T02:53:59.521Z,5.60
2019-03-21T02:56:30.482Z,5.50
2019-03-21T02:59:01.507Z,5.50
2019-03-21T03:01:32.324Z,5.50
2019-03-21T03:04:03.137Z,5.50
2019-03-21T03:06:34.009Z,5.40
2019-03-21T03:09:07.472Z,5.40
2019-03-21T03:11:38.261Z,5.40
2019-03-21T03:14:09.207Z,5.40
2019-03-21T03:16:40.008Z,5.40
2019-03-21T03:19:10.800Z,5.40
2019-03-21T03:21:41.622Z,5.40
2019-03-21T03:24:12.518Z,5.40
2019-03-21T03:26:43.448Z,5.30
2019-03-21T03:29:14.501Z,5.30
2019-03-21T03:31:45.416Z,5.30
2019-03-21T03:34:16.337Z,5.10
2019-03-21T03:36:47.212Z,5.20
2019-03-21T03:39:18.113Z,5.20
2019-03-21T03:41:48.975Z,5.00
2019-03-21T03:44:19.810Z,5.10
2019-03-21T03:46:50.593Z,5.10
2019-03-21T03:49:21.412Z,5.10
2019-03-21T03:51:52.222Z,5.10
2019-03-21T03:54:23.161Z,5.10
2019-03-21T03:56:54.040Z,5.10
2019-03-21T03:59:24.880Z,5.10
2019-03-21T04:01:55.909Z,5.10
2019-03-21T04:04:26.785Z,5.10
2019-03-21T04:06:57.750Z,5.10
2019-03-21T04:09:28.620Z,5.10
2019-03-21T04:11:59.491Z,5.10
2019-03-21T04:14:31.345Z,5.10
2019-03-21T04:17:02.550Z,5.10
2019-03-21T04:19:33.433Z,5.20
2019-03-21T04:22:04.350Z,5.20
2019-03-21T04:24:35.331Z,5.20
2019-03-21T04:27:06.405Z,5.10
2019-03-21T04:29:37.313Z,5.10
2019-03-21T04:32:08.178Z,4.90
2019-03-21T04:34:39.072Z,4.90
2019-03-21T04:37:09.967Z,4.80
2019-03-21T04:39:40.832Z,4.80
2019-03-21T04:42:11.888Z,4.90
2019-03-21T04:44:44.499Z,5.00
2019-03-21T04:47:15.387Z,5.00
2019-03-21T04:49:46.196Z,4.90
2019-03-21T04:52:17.120Z,4.90
2019-03-21T04:54:47.936Z,4.80
2019-03-21T04:57:19.713Z,4.70
2019-03-21T04:59:50.536Z,4.60
2019-03-21T05:02:21.764Z,4.60
2019-03-21T05:04:52.565Z,4.60
2019-03-21T05:07:23.460Z,4.60
2019-03-21T05:09:54.279Z,4.60
2019-03-21T05:12:25.077Z,4.60
2019-03-21T05:14:55.988Z,4.50
2019-03-21T05:17:26.781Z,4.50
2019-03-21T05:19:57.588Z,4.50
2019-03-21T05:22:30.061Z,4.50
2019-03-21T05:25:01.736Z,4.50
2019-03-21T05:27:32.544Z,4.50
2019-03-21T05:30:03.616Z,4.50
2019-03-21T05:32:34.399Z,4.60
2019-03-21T05:35:05.644Z,4.60
2019-03-21T05:37:36.472Z,4.60
2019-03-21T05:40:09.181Z,4.80
2019-03-21T05:42:40.228Z,4.80
2019-03-21T05:45:12.048Z,4.70
2019-03-21T05:47:42.880Z,4.70
2019-03-21T05:50:15.109Z,4.80
2019-03-21T05:52:46.968Z,4.80
2019-03-21T05:55:17.852Z,4.70
2019-03-21T05:57:48.725Z,4.80
2019-03-21T06:00:23.188Z,4.80
2019-03-21T06:02:54.184Z,4.80
2019-03-21T06:05:25.225Z,4.80
2019-03-21T06:08:18.578Z,4.90
2019-03-21T06:10:50.728Z,5.10
2019-03-21T06:13:21.553Z,5.10
2019-03-21T06:15:52.504Z,5.20
2019-03-21T06:18:44.233Z,5.10
2019-03-21T06:21:19.985Z,5.10
2019-03-21T06:24:00.855Z,5.00
2019-03-21T06:27:13.994Z,5.00
2019-03-21T06:29:38.701Z,5.00
2019-03-21T06:32:09.517Z,5.00
2019-03-21T06:34:40.328Z,5.10
2019-03-21T06:37:11.216Z,5.10
2019-03-21T06:39:42.013Z,5.10
2019-03-21T06:42:12.816Z,5.20
2019-03-21T06:44:43.649Z,5.30
2019-03-21T06:47:14.572Z,5.40
2019-03-21T06:49:46.565Z,5.50
2019-03-21T06:52:17.961Z,5.60
2019-03-21T06:54:48.936Z,5.70
2019-03-21T06:57:19.878Z,5.80
2019-03-21T06:59:50.709Z,5.90
2019-03-21T07:02:21.601Z,6.00
2019-03-21T07:04:53.489Z,6.10
2019-03-21T07:07:24.389Z,6.20
2019-03-21T07:09:55.189Z,6.30
2019-03-21T07:12:26.011Z,6.40
2019-03-21T07:14:56.801Z,6.50
2019-03-21T07:17:27.626Z,6.60
2019-03-21T07:19:58.413Z,6.70
2019-03-21T07:22:29.221Z,6.70
2019-03-21T07:25:00.379Z,6.80
2019-03-21T07:27:32.437Z,6.90
2019-03-21T07:30:03.338Z,7.00
2019-03-21T07:32:34.542Z,7.10
2019-03-21T07:35:06.576Z,7.10
2019-03-21T07:37:37.467Z,7.20
2019-03-21T07:40:10.482Z,7.20
2019-03-21T07:42:41.525Z,7.40
2019-03-21T07:45:12.501Z,7.60
2019-03-21T07:47:43.691Z,7.80
2019-03-21T07:50:14.925Z,7.80
2019-03-21T07:52:45.737Z,8.00
2019-03-21T07:55:16.709Z,8.20
2019-03-21T07:57:47.532Z,8.40
2019-03-21T08:00:18.505Z,8.60
2019-03-21T08:02:49.377Z,8.90
2019-03-21T08:05:20.177Z,9.20
2019-03-21T08:07:50.961Z,9.40
2019-03-21T08:10:21.854Z,9.60
2019-03-21T08:12:52.656Z,9.80
2019-03-21T08:15:23.466Z,10.00
2019-03-21T08:17:54.400Z,10.40
2019-03-21T08:20:25.293Z,10.50
2019-03-21T08:22:56.093Z,10.90
2019-03-21T08:25:27.000Z,10.90
2019-03-21T08:27:57.845Z,11.10
2019-03-21T08:30:40.192Z,11.50
2019-03-21T08:33:12.121Z,11.40
2019-03-21T08:35:42.952Z,11.30
2019-03-21T08:38:13.817Z,11.50
2019-03-21T08:40:44.638Z,11.70
2019-03-21T08:43:15.505Z,11.80
2019-03-21T08:45:46.360Z,12.00
2019-03-21T08:48:17.283Z,12.10
2019-03-21T08:50:48.153Z,12.20
2019-03-21T08:53:19.041Z,12.40
2019-03-21T08:55:49.859Z,12.70
2019-03-21T08:58:20.745Z,12.80
2019-03-21T09:00:51.761Z,12.70
2019-03-21T09:03:22.729Z,12.80
2019-03-21T09:05:53.542Z,12.80
2019-03-21T09:08:24.373Z,12.90
2019-03-21T09:10:55.381Z,12.90
2019-03-21T09:13:26.221Z,13.10
2019-03-21T09:15:57.451Z,13.40
2019-03-21T09:18:28.358Z,13.70
2019-03-21T09:20:59.237Z,13.70
2019-03-21T09:23:30.109Z,13.70
2019-03-21T09:26:01.665Z,13.70
2019-03-21T09:28:32.485Z,13.80
2019-03-21T09:31:03.464Z,13.90
2019-03-21T09:33:34.381Z,13.80
2019-03-21T09:36:05.492Z,13.90
2019-03-21T09:38:36.377Z,14.30
2019-03-21T09:41:07.250Z,14.60
2019-03-21T09:43:38.057Z,14.80
2019-03-21T09:46:08.933Z,14.90
2019-03-21T09:48:39.758Z,14.80
2019-03-21T09:51:10.882Z,15.00
2019-03-21T09:53:41.685Z,15.00
2019-03-21T09:56:12.497Z,14.90
2019-03-21T09:58:43.368Z,14.90
2019-03-21T10:01:14.189Z,14.90
2019-03-21T10:03:45.009Z,15.10
2019-03-21T10:06:15.813Z,15.30
2019-03-21T10:08:46.733Z,15.20
2019-03-21T10:11:17.602Z,15.30
2019-03-21T10:13:48.585Z,15.20
2019-03-21T10:16:19.393Z,15.20
2019-03-21T10:18:50.209Z,15.50
2019-03-21T10:21:20.997Z,15.40
2019-03-21T10:23:51.877Z,15.60
2019-03-21T10:26:22.697Z,15.80
2019-03-21T10:28:53.617Z,15.70
2019-03-21T10:31:24.577Z,15.70
2019-03-21T10:33:55.418Z,15.80
2019-03-21T10:36:27.216Z,15.90
2019-03-21T10:38:58.009Z,16.00
2019-03-21T10:41:28.905Z,15.90
2019-03-21T10:43:59.782Z,15.90
2019-03-21T10:46:30.622Z,15.60
2019-03-21T10:49:02.413Z,15.70
2019-03-21T10:51:33.237Z,15.70
2019-03-21T10:54:05.107Z,15.70
2019-03-21T10:56:35.918Z,15.80
2019-03-21T10:59:06.961Z,15.80
2019-03-21T11:01:38.115Z,15.70
2019-03-21T11:04:08.939Z,15.90
2019-03-21T11:06:39.798Z,15.90
2019-03-21T11:09:10.617Z,15.90
2019-03-21T11:11:41.597Z,15.90
2019-03-21T11:14:12.469Z,15.90
2019-03-21T11:16:43.358Z,15.90
2019-03-21T11:19:14.346Z,15.80
2019-03-21T11:21:45.309Z,15.80
2019-03-21T11:24:16.117Z,15.90
2019-03-21T11:26:47.094Z,15.90
2019-03-21T11:29:17.978Z,15.60
2019-03-21T11:31:48.786Z,15.70
2019-03-21T11:34:19.586Z,15.80
2019-03-21T11:36:50.691Z,15.80
2019-03-21T11:39:21.481Z,15.70
2019-03-21T11:41:52.398Z,15.70
2019-03-21T11:44:24.185Z,15.60
2019-03-21T11:46:55.027Z,15.60
2019-03-21T11:49:25.851Z,15.50
2019-03-21T11:51:56.652Z,15.50
2019-03-21T11:54:27.597Z,15.40
2019-03-21T11:56:58.459Z,15.40
2019-03-21T11:59:46.199Z,15.40
2019-03-21T12:02:02.948Z,15.50
2019-03-21T12:04:33.845Z,15.40
2019-03-21T12:07:04.797Z,15.40
2019-03-21T12:09:35.648Z,15.50
2019-03-21T12:12:06.530Z,15.40
2019-03-21T12:14:37.422Z,15.50
2019-03-21T12:17:08.298Z,15.50
2019-03-21T12:19:39.238Z,15.40
2019-03-21T12:22:10.106Z,15.30
2019-03-21T12:24:40.994Z,15.30
2019-03-21T12:27:11.806Z,15.30
2019-03-21T12:29:42.854Z,14.80
2019-03-21T12:32:13.679Z,15.20
2019-03-21T12:34:44.494Z,15.30
2019-03-21T12:37:15.470Z,15.20
2019-03-21T12:39:46.374Z,15.20
2019-03-21T12:42:17.187Z,15.10
2019-03-21T12:44:49.580Z,14.90
2019-03-21T12:47:30.862Z,14.90
2019-03-21T12:49:53.121Z,14.90
2019-03-21T12:52:24.386Z,15.00
2019-03-21T12:54:55.351Z,15.00
2019-03-21T12:57:26.410Z,15.10
2019-03-21T12:59:57.320Z,15.10
2019-03-21T13:02:32.188Z,15.20
2019-03-21T13:05:00.675Z,15.20
2019-03-21T13:07:31.478Z,15.20
2019-03-21T13:10:02.431Z,15.10
2019-03-21T13:12:33.348Z,15.10
2019-03-21T13:15:06.077Z,15.10
2019-03-21T13:17:36.894Z,15.00
2019-03-21T13:20:08.509Z,15.10
2019-03-21T13:22:39.324Z,15.10
2019-03-21T13:25:10.306Z,15.20
2019-03-21T13:27:41.223Z,15.20
2019-03-21T13:30:13.040Z,15.20
2019-03-21T13:32:43.865Z,15.30
2019-03-21T13:35:14.780Z,15.30
2019-03-21T13:37:45.739Z,15.20
2019-03-21T13:40:16.530Z,15.20
2019-03-21T13:42:47.430Z,15.20
2019-03-21T13:45:18.300Z,15.30
2019-03-21T13:47:49.139Z,15.30
2019-03-21T13:50:20.095Z,15.30
2019-03-21T13:52:50.931Z,15.30
2019-03-21T13:55:22.014Z,15.30
2019-03-21T13:57:53.094Z,15.30
2019-03-21T14:00:24.051Z,15.30
2019-03-21T14:02:55.398Z,15.30
2019-03-21T14:05:26.359Z,15.30
2019-03-21T14:07:57.187Z,15.40
2019-03-21T14:10:28.287Z,15.30
2019-03-21T14:12:59.095Z,15.20
2019-03-21T14:15:30.183Z,15.10
2019-03-21T14:18:01.477Z,15.20
2019-03-21T14:20:32.368Z,15.20
2019-03-21T14:23:03.182Z,15.20
2019-03-21T14:25:34.018Z,15.20
2019-03-21T14:28:05.261Z,15.20
2019-03-21T14:30:36.152Z,15.30
2019-03-21T14:33:08.335Z,15.30
2019-03-21T14:35:39.682Z,15.20
2019-03-21T14:38:13.183Z,15.20
2019-03-21T14:40:43.306Z,15.10
2019-03-21T14:43:14.143Z,15.10
2019-03-21T14:45:44.955Z,15.00
2019-03-21T14:48:15.774Z,15.00
2019-03-21T14:50:47.014Z,15.20
2019-03-21T14:53:28.375Z,15.20
2019-03-21T14:55:50.373Z,15.20
2019-03-21T14:58:22.135Z,15.20
2019-03-21T15:00:54.114Z,15.20
2019-03-21T15:03:25.003Z,15.20
2019-03-21T15:05:55.875Z,15.20
2019-03-21T15:08:26.827Z,15.10
2019-03-21T15:10:57.635Z,15.10
2019-03-21T15:13:28.564Z,15.10
2019-03-21T15:15:59.607Z,15.00
2019-03-21T15:18:30.490Z,15.00
2019-03-21T15:21:01.375Z,15.10
2019-03-21T15:23:40.681Z,15.10
2019-03-21T15:26:05.155Z,15.00
2019-03-21T15:28:36.063Z,15.00
2019-03-21T15:31:06.928Z,15.00
2019-03-21T15:33:37.751Z,15.00
2019-03-21T15:36:08.782Z,15.00
2019-03-21T15:38:39.628Z,15.10
2019-03-21T15:41:10.758Z,15.10
2019-03-21T15:43:41.735Z,15.10
2019-03-21T15:46:12.971Z,15.10
2019-03-21T15:48:43.847Z,15.00
2019-03-21T15:51:14.727Z,15.00
2019-03-21T15:53:54.621Z,15.10
2019-03-21T15:56:18.323Z,15.00
2019-03-21T15:58:49.127Z,15.10
2019-03-21T16:01:19.963Z,15.10
2019-03-21T16:03:51.015Z,15.20
2019-03-21T16:06:21.888Z,15.30
2019-03-21T16:08:52.693Z,15.40
2019-03-21T16:11:23.582Z,15.50
2019-03-21T16:13:54.374Z,15.50
2019-03-21T16:16:25.482Z,15.50
2019-03-21T16:18:56.385Z,15.40
2019-03-21T16:21:27.261Z,15.30
2019-03-21T16:24:05.245Z,15.30
2019-03-21T16:26:31.559Z,15.20
2019-03-21T16:29:03.530Z,15.10
2019-03-21T16:31:34.382Z,15.10
2019-03-21T16:34:05.358Z,14.90
2019-03-21T16:36:36.167Z,15.00
2019-03-21T16:39:07.979Z,14.90
2019-03-21T16:41:38.786Z,14.70
2019-03-21T16:44:09.759Z,14.70
2019-03-21T16:46:40.678Z,14.70
2019-03-21T16:49:11.515Z,14.60
2019-03-21T16:51:42.411Z,14.60
2019-03-21T16:54:17.412Z,14.50
2019-03-21T16:56:45.782Z,14.40
2019-03-21T16:59:16.680Z,14.40
2019-03-21T17:01:47.634Z,14.30
2019-03-21T17:04:38.003Z,14.20
2019-03-21T17:07:08.812Z,14.10
2019-03-21T17:09:39.694Z,14.00
2019-03-21T17:12:10.518Z,14.00
2019-03-21T17:14:41.391Z,13.90
2019-03-21T17:17:12.247Z,13.90
2019-03-21T17:19:43.054Z,13.90
2019-03-21T17:22:13.987Z,13.80
2019-03-21T17:24:44.781Z,13.80
2019-03-21T17:27:15.616Z,13.70
2019-03-21T17:29:46.467Z,13.60
2019-03-21T17:32:17.592Z,13.50
2019-03-21T17:34:48.558Z,13.40
2019-03-21T17:37:19.436Z,13.40
2019-03-21T17:39:50.250Z,13.30
2019-03-21T17:42:21.292Z,13.20
2019-03-21T17:44:52.151Z,13.20
2019-03-21T17:47:23.315Z,13.10
2019-03-21T17:49:54.127Z,13.00
2019-03-21T17:52:24.952Z,12.90
2019-03-21T17:54:55.820Z,12.80
2019-03-21T17:57:34.361Z,12.60
2019-03-21T18:00:23.303Z,12.50
2019-03-21T18:02:57.643Z,12.40
2019-03-21T18:05:30.376Z,12.20
2019-03-21T18:08:01.573Z,12.10
2019-03-21T18:10:33.042Z,11.90
2019-03-21T18:13:04.282Z,11.70
2019-03-21T18:15:35.394Z,11.60
2019-03-21T18:18:06.433Z,11.50
2019-03-21T18:20:37.259Z,11.40
2019-03-21T18:23:08.199Z,11.30
2019-03-21T18:25:39.289Z,11.30
2019-03-21T18:28:10.166Z,11.20
2019-03-21T18:30:41.231Z,11.10
2019-03-21T18:33:12.120Z,11.10
2019-03-21T18:35:43.291Z,11.00
2019-03-21T18:38:14.087Z,10.90
2019-03-21T18:40:45.008Z,10.80
2019-03-21T18:43:16.867Z,10.80
2019-03-21T18:45:48.671Z,10.70
2019-03-21T18:48:19.467Z,10.60
2019-03-21T18:50:50.303Z,10.50
2019-03-21T18:53:21.321Z,10.40
2019-03-21T18:55:52.125Z,10.40
2019-03-21T18:58:23.162Z,10.40
2019-03-21T19:00:54.155Z,10.30
2019-03-21T19:03:25.179Z,10.30
2019-03-21T19:05:56.103Z,10.30
2019-03-21T19:08:27.115Z,10.30
2019-03-21T19:10:58.920Z,10.20
2019-03-21T19:13:29.819Z,10.10
2019-03-21T19:16:00.687Z,10.10
2019-03-21T19:18:31.502Z,10.10
2019-03-21T19:21:02.302Z,10.10
2019-03-21T19:23:33.175Z,10.00
2019-03-21T19:26:04.153Z,9.90
2019-03-21T19:28:35.091Z,10.00
2019-03-21T19:31:05.967Z,10.10
2019-03-21T19:33:36.863Z,10.10
2019-03-21T19:36:07.951Z,10.10
2019-03-21T19:38:39.347Z,10.10
2019-03-21T19:41:10.283Z,10.00
2019-03-21T19:43:41.083Z,9.90
2019-03-21T19:46:11.899Z,9.80
2019-03-21T19:48:50.090Z,9.80
2019-03-21T19:51:15.274Z,9.80
2019-03-21T19:53:46.239Z,9.80
2019-03-21T19:56:17.067Z,9.60
2019-03-21T19:58:47.987Z,9.60
2019-03-21T20:01:18.867Z,9.50
2019-03-21T20:03:49.843Z,9.50
2019-03-21T20:06:20.736Z,9.40
2019-03-21T20:08:51.666Z,9.40
2019-03-21T20:11:22.503Z,9.30
2019-03-21T20:13:53.531Z,9.30
2019-03-21T20:16:24.363Z,9.20
2019-03-21T20:18:55.200Z,9.10
2019-03-21T20:21:26.043Z,9.10
2019-03-21T20:23:56.907Z,9.10
2019-03-21T20:26:27.731Z,9.00
2019-03-21T20:28:58.556Z,9.00
2019-03-21T20:31:29.903Z,8.90
2019-03-21T20:34:00.711Z,8.90
2019-03-21T20:36:31.608Z,8.90
2019-03-21T20:39:02.434Z,8.90
2019-03-21T20:41:34.547Z,8.80
2019-03-21T20:44:14.683Z,8.80
2019-03-21T20:46:38.545Z,8.70
2019-03-21T20:49:10.466Z,8.70
2019-03-21T20:51:41.449Z,8.60
2019-03-21T20:54:12.356Z,8.60
2019-03-21T20:56:43.293Z,8.60
2019-03-21T20:59:14.101Z,8.60
2019-03-21T21:01:45.060Z,8.50
2019-03-21T21:04:15.945Z,8.50
2019-03-21T21:06:47.082Z,8.50
2019-03-21T21:09:17.895Z,8.50
2019-03-21T21:11:48.788Z,8.40
2019-03-21T21:14:19.653Z,8.40
2019-03-21T21:16:50.464Z,8.40
2019-03-21T21:19:21.829Z,8.50
2019-03-21T21:21:52.637Z,8.40
2019-03-21T21:24:23.497Z,8.40
2019-03-21T21:26:54.544Z,8.40
2019-03-21T21:29:25.401Z,8.30
2019-03-21T21:31:56.299Z,8.60
2019-03-21T21:34:27.144Z,8.80
2019-03-21T21:36:58.049Z,8.80
2019-03-21T21:39:28.832Z,8.90
2019-03-21T21:41:59.677Z,9.00
2019-03-21T21:44:30.557Z,9.00
2019-03-21T21:47:01.365Z,9.00
2019-03-21T21:49:32.178Z,9.00
2019-03-21T21:52:02.989Z,9.10
2019-03-21T21:54:34.001Z,9.00
2019-03-21T21:57:04.793Z,9.10
2019-03-21T21:59:35.842Z,9.10
2019-03-21T22:02:06.649Z,9.00
2019-03-21T22:04:37.472Z,9.00
2019-03-21T22:07:08.369Z,9.00
2019-03-21T22:09:39.229Z,9.00
2019-03-21T22:12:10.105Z,9.00
2019-03-21T22:14:40.973Z,9.00
2019-03-21T22:17:11.826Z,9.00
2019-03-21T22:19:42.713Z,9.10
2019-03-21T22:22:13.515Z,9.00
2019-03-21T22:24:44.405Z,9.00
2019-03-21T22:27:15.237Z,9.00
2019-03-21T22:29:46.129Z,9.00
2019-03-21T22:32:17.049Z,8.90
2019-03-21T22:34:47.845Z,8.90
2019-03-21T22:37:19.089Z,8.90
2019-03-21T22:39:49.980Z,8.90
2019-03-21T22:42:20.769Z,8.80
2019-03-21T22:44:51.584Z,8.80
2019-03-21T22:47:23.201Z,8.80
2019-03-21T22:49:54.032Z,8.70
2019-03-21T22:52:24.829Z,8.80
2019-03-21T22:54:55.761Z,8.70
2019-03-21T22:57:26.545Z,8.70
2019-03-21T22:59:58.649Z,8.70
2019-03-21T23:02:29.681Z,8.60
2019-03-21T23:05:00.481Z,8.60
2019-03-21T23:07:32.378Z,8.60
2019-03-21T23:12:46.773Z,8.60
2019-03-21T23:15:17.684Z,8.60
2019-03-21T23:17:48.573Z,8.60
2019-03-21T23:20:19.476Z,8.60
2019-03-21T23:22:50.354Z,8.60
2019-03-21T23:25:21.434Z,8.50
2019-03-21T23:27:53.413Z,8.40
2019-03-21T23:30:24.370Z,8.40
2019-03-21T23:32:55.285Z,8.40
2019-03-21T23:35:26.141Z,8.40
2019-03-21T23:37:56.973Z,8.40
2019-03-21T23:40:28.385Z,8.30
2019-03-21T23:42:59.329Z,8.30
2019-03-21T23:45:30.140Z,8.30
2019-03-21T23:48:00.949Z,8.30
2019-03-21T23:50:31.833Z,8.20
2019-03-21T23:53:02.869Z,8.20
2019-03-21T23:55:34.029Z,8.20
2019-03-21T23:58:04.973Z,8.10
